Terminal Aerodrome Forecast
Issued by NWS

Home | Current Version | Previous Version | Text Only | Print | Product List | Glossary On
Versions: 1 2 3 4 5 6 7 8 9 10 11 12 13 14 15 16 17 18 19 20 21 22 23 24 25 26 27 28 29
000
FTUS45 KGJT 221136
TAFRIL
TAF
KRIL 221136Z 2212/2312 20017G29KT P6SM BKN150
     FM221800 22015G26KT P6SM SCT090 BKN150
     FM230200 18006KT P6SM SCT090 BKN150
     FM230800 VRB03KT P6SM FEW080 BKN150=

USA.gov is the U.S. government's official web portal to all federal, state and local government web resources and services.